UAL7564 KIAH-KDFW
Flight info
| Callsign | UAL7564 |
|---|---|
| Flight time | N/A |
| Altitude | 30000 |
| Route | BLTWY7 CRIED BEREE3 |
| Aircraft | E170/M-SDE3GILORVW/S |
Departure
| Time | 2026-05-04 20:15 |
|---|---|
| Airport | George Bush Intercontinental Airport (KIAH) |
Arrival
| Time | N/A |
|---|---|
| Airport | Dallas Fort Worth International Airport (KDFW) |
| Time | Latitude | Longitude | Altitude | Speed | Heading |
|---|---|---|---|---|---|
| 2026-05-04 19:47 | 29.98467 | -95.34738 | 104 ft | 0 kts | 44° |
| 2026-05-04 20:06 | 29.98466 | -95.34739 | 105 ft | 2 kts | 44° |
| 2026-05-04 20:06 | 29.98450 | -95.34757 | 103 ft | 3 kts | 45° |
| 2026-05-04 20:06 | 29.98438 | -95.34782 | 105 ft | 4 kts | 91° |
| 2026-05-04 20:07 | 29.98451 | -95.34803 | 104 ft | 4 kts | 163° |
| 2026-05-04 20:07 | 29.98476 | -95.34805 | 104 ft | 2 kts | 180° |
| 2026-05-04 20:07 | 29.98478 | -95.34805 | 104 ft | 0 kts | 180° |
| 2026-05-04 20:10 | 29.98476 | -95.34805 | 105 ft | 2 kts | 180° |
| 2026-05-04 20:11 | 29.98444 | -95.34805 | 105 ft | 8 kts | 180° |
| 2026-05-04 20:11 | 29.98392 | -95.34807 | 105 ft | 0 kts | 197° |
| 2026-05-04 20:11 | 29.98375 | -95.34824 | 104 ft | 6 kts | 239° |
| 2026-05-04 20:11 | 29.98372 | -95.34921 | 105 ft | 17 kts | 272° |
| 2026-05-04 20:12 | 29.98372 | -95.35075 | 105 ft | 22 kts | 267° |
| 2026-05-04 20:12 | 29.98384 | -95.35219 | 104 ft | 14 kts | 276° |
| 2026-05-04 20:12 | 29.98364 | -95.35300 | 104 ft | 0 kts | 270° |
| 2026-05-04 20:12 | 29.98367 | -95.35317 | 105 ft | 0 kts | 291° |
| 2026-05-04 20:13 | 29.98406 | -95.35358 | 105 ft | 19 kts | 334° |
| 2026-05-04 20:13 | 29.98590 | -95.35453 | 105 ft | 33 kts | 330° |
| 2026-05-04 20:13 | 29.98785 | -95.35572 | 105 ft | 25 kts | 343° |
| 2026-05-04 20:13 | 29.98815 | -95.35585 | 105 ft | 2 kts | 319° |
| 2026-05-04 20:14 | 29.98839 | -95.35639 | 105 ft | 14 kts | 264° |
| 2026-05-04 20:14 | 29.98788 | -95.35757 | 106 ft | 7 kts | 231° |
| 2026-05-04 20:14 | 29.98772 | -95.35769 | 107 ft | 1 kts | 197° |
| 2026-05-04 20:14 | 29.98760 | -95.35769 | 107 ft | 5 kts | 176° |
| 2026-05-04 20:15 | 29.98709 | -95.35741 | 105 ft | 14 kts | 149° |
| 2026-05-04 20:15 | 29.98684 | -95.35725 | 106 ft | 23 kts | 152° |
| 2026-05-04 20:15 | 29.98160 | -95.35410 | 105 ft | 143 kts | 154° |
| 2026-05-04 20:15 | 29.97116 | -95.34757 | 846 ft | 193 kts | 154° |
| 2026-05-04 20:16 | 29.95833 | -95.33899 | 2180 ft | 225 kts | 152° |
| 2026-05-04 20:16 | 29.94465 | -95.32972 | 2836 ft | 217 kts | 149° |
| 2026-05-04 20:16 | 29.93563 | -95.31673 | 3633 ft | 222 kts | 115° |
| 2026-05-04 20:16 | 29.93519 | -95.29775 | 3908 ft | 258 kts | 75° |
| 2026-05-04 20:17 | 29.94558 | -95.28008 | 4244 ft | 282 kts | 41° |
| 2026-05-04 20:17 | 29.96185 | -95.26863 | 5277 ft | 265 kts | 24° |
| 2026-05-04 20:17 | 29.97893 | -95.26313 | 6335 ft | 252 kts | 3° |
| 2026-05-04 20:17 | 29.99661 | -95.26509 | 6631 ft | 267 kts | 340° |
| 2026-05-04 20:18 | 30.01430 | -95.27405 | 6779 ft | 283 kts | 330° |
| 2026-05-04 20:18 | 30.03145 | -95.28373 | 7770 ft | 261 kts | 332° |
| 2026-05-04 20:18 | 30.04731 | -95.29221 | 9290 ft | 241 kts | 331° |
| 2026-05-04 20:18 | 30.06130 | -95.29944 | 10806 ft | 210 kts | 331° |
| 2026-05-04 20:19 | 30.07511 | -95.30665 | 11401 ft | 225 kts | 331° |
| 2026-05-04 20:19 | 30.09061 | -95.31465 | 11011 ft | 266 kts | 332° |
| 2026-05-04 20:19 | 30.10883 | -95.32382 | 10688 ft | 298 kts | 333° |
| 2026-05-04 20:19 | 30.12749 | -95.33299 | 11496 ft | 277 kts | 333° |
| 2026-05-04 20:20 | 30.14400 | -95.34104 | 12902 ft | 240 kts | 332° |
| 2026-05-04 20:20 | 30.15901 | -95.34842 | 13687 ft | 235 kts | 331° |
| 2026-05-04 20:20 | 30.17460 | -95.35623 | 13454 ft | 264 kts | 332° |
| 2026-05-04 20:20 | 30.19259 | -95.36523 | 13003 ft | 297 kts | 332° |
| 2026-05-04 20:21 | 30.21259 | -95.37506 | 14433 ft | 291 kts | 333° |
| 2026-05-04 20:21 | 30.23067 | -95.38363 | 16475 ft | 272 kts | 333° |
| 2026-05-04 20:21 | 30.26341 | -95.39977 | 17566 ft | 262 kts | 330° |
| 2026-05-04 20:22 | 30.28057 | -95.40842 | 17479 ft | 276 kts | 331° |
| 2026-05-04 20:22 | 30.29854 | -95.41730 | 17457 ft | 286 kts | 333° |
| 2026-05-04 20:22 | 30.31820 | -95.42343 | 17493 ft | 298 kts | 341° |
| 2026-05-04 20:22 | 30.33864 | -95.42841 | 17598 ft | 302 kts | 342° |
| 2026-05-04 20:23 | 30.35914 | -95.43335 | 17847 ft | 300 kts | 342° |
| 2026-05-04 20:23 | 30.37947 | -95.43822 | 18144 ft | 296 kts | 342° |
| 2026-05-04 20:23 | 30.39959 | -95.44306 | 18341 ft | 296 kts | 342° |
| 2026-05-04 20:23 | 30.41987 | -95.44797 | 18394 ft | 300 kts | 342° |
| 2026-05-04 20:24 | 30.44048 | -95.45295 | 18421 ft | 304 kts | 342° |
| 2026-05-04 20:24 | 30.46132 | -95.45796 | 18587 ft | 314 kts | 342° |
| 2026-05-04 20:24 | 30.48272 | -95.46311 | 19982 ft | 301 kts | 341° |